Time;durP1;ratioP1;P1;durP2;ratioP2;P2;SDS_P1;SDS_P2;PMS_P1;PMS_P2;Temp;Humidity;BMP_temperature;BMP_pressure;BME280_temperature;BME280_humidity;BME280_pressure;Samples;Min_cycle;Max_cycle;Signal;HPM_P1;HPM_P2
2023/04/11 00:02:03;;;;;;;31.70;18.40;;;;;;;-128.00;-1.00;-1.00;18493;304;7504963;-31
2023/04/11 00:04:29;;;;;;;47.70;24.00;;;;;;;-128.00;-1.00;-1.00;18501;292;7505834;-34
2023/04/11 00:06:55;;;;;;;45.30;21.60;;;;;;;-128.00;-1.00;-1.00;18488;293;7504057;-34
2023/04/11 00:09:21;;;;;;;46.40;22.80;;;;;;;-128.00;-1.00;-1.00;18516;292;7504495;-30
2023/04/11 00:11:47;;;;;;;44.40;21.60;;;;;;;-128.00;-1.00;-1.00;18491;292;7505758;-31
2023/04/11 00:14:14;;;;;;;54.10;22.60;;;;;;;-128.00;-1.00;-1.00;18479;292;7506012;-30
2023/04/11 00:16:40;;;;;;;56.00;24.40;;;;;;;-128.00;-1.00;-1.00;18513;292;7504744;-29
2023/04/11 00:19:08;;;;;;;43.50;20.40;;;;;;;-128.00;-1.00;-1.00;18497;292;7504826;-32
2023/04/11 00:21:38;;;;;;;46.70;21.20;;;;;;;-128.00;-1.00;-1.00;18509;292;7505101;-30
2023/04/11 00:24:07;;;;;;;59.70;23.00;;;;;;;-128.00;-1.00;-1.00;18510;292;7505152;-35
2023/04/11 00:26:32;;;;;;;42.00;22.10;;;;;;;-128.00;-1.00;-1.00;18520;292;7505324;-35
2023/04/11 00:28:58;;;;;;;39.70;22.30;;;;;;;-128.00;-1.00;-1.00;18521;292;7504866;-31
2023/04/11 00:31:24;;;;;;;45.00;22.30;;;;;;;-128.00;-1.00;-1.00;18519;292;7506021;-31
2023/04/11 00:33:49;;;;;;;44.70;24.60;;;;;;;-128.00;-1.00;-1.00;18491;293;7504173;-34
2023/04/11 00:36:15;;;;;;;52.60;26.00;;;;;;;-128.00;-1.00;-1.00;18516;292;7504640;-30
2023/04/11 00:38:41;;;;;;;56.50;22.80;;;;;;;-128.00;-1.00;-1.00;18521;292;7504926;-34
2023/04/11 00:41:07;;;;;;;40.30;20.00;;;;;;;-128.00;-1.00;-1.00;18507;292;7506519;-33
2023/04/11 00:43:33;;;;;;;52.40;25.50;;;;;;;-128.00;-1.00;-1.00;18511;292;7507050;-33
2023/04/11 00:45:59;;;;;;;42.50;24.00;;;;;;;-128.00;-1.00;-1.00;18505;292;7505912;-30
2023/04/11 00:48:27;;;;;;;38.90;21.50;;;;;;;-128.00;-1.00;-1.00;18471;293;7505533;-30
2023/04/11 00:50:53;;;;;;;39.00;18.50;;;;;;;-128.00;-1.00;-1.00;18504;293;7506018;-35
2023/04/11 00:53:19;;;;;;;42.10;18.20;;;;;;;-128.00;-1.00;-1.00;18506;293;7504796;-35
2023/04/11 00:55:45;;;;;;;41.00;21.60;;;;;;;-128.00;-1.00;-1.00;18546;293;7504643;-31
2023/04/11 00:58:11;;;;;;;29.10;15.80;;;;;;;-128.00;-1.00;-1.00;18508;292;7505092;-35
2023/04/11 01:00:37;;;;;;;43.20;16.60;;;;;;;-128.00;-1.00;-1.00;18530;292;7504571;-35
2023/04/11 01:03:04;;;;;;;34.90;15.60;;;;;;;-128.00;-1.00;-1.00;18485;294;7505264;-31
2023/04/11 01:05:30;;;;;;;33.70;16.80;;;;;;;-128.00;-1.00;-1.00;18477;293;7506205;-35
2023/04/11 01:07:56;;;;;;;38.30;17.10;;;;;;;-128.00;-1.00;-1.00;18489;292;7505041;-34
2023/04/11 01:10:22;;;;;;;39.60;19.00;;;;;;;-128.00;-1.00;-1.00;18501;292;7504565;-30
2023/04/11 01:12:47;;;;;;;35.60;19.50;;;;;;;-128.00;-1.00;-1.00;18500;293;7504550;-35
2023/04/11 01:15:14;;;;;;;39.90;17.90;;;;;;;-128.00;-1.00;-1.00;18918;293;7506338;-32
2023/04/11 01:17:44;;;;;;;42.40;18.50;;;;;;;-128.00;-1.00;-1.00;18889;293;7504215;-30
2023/04/11 01:20:11;;;;;;;38.00;18.20;;;;;;;-128.00;-1.00;-1.00;18514;292;7504402;-31
2023/04/11 01:22:37;;;;;;;39.60;17.20;;;;;;;-128.00;-1.00;-1.00;18505;292;7506183;-31
2023/04/11 01:25:04;;;;;;;31.00;16.10;;;;;;;-128.00;-1.00;-1.00;18910;292;7505248;-35
2023/04/11 01:27:32;;;;;;;41.70;19.10;;;;;;;-128.00;-1.00;-1.00;18913;292;7504929;-32
2023/04/11 01:29:58;;;;;;;53.90;18.10;;;;;;;-128.00;-1.00;-1.00;18470;317;7504503;-34
2023/04/11 01:32:24;;;;;;;33.20;19.30;;;;;;;-128.00;-1.00;-1.00;18510;292;7505785;-31
2023/04/11 01:34:50;;;;;;;37.10;18.70;;;;;;;-128.00;-1.00;-1.00;18517;293;7504188;-35
2023/04/11 01:37:15;;;;;;;30.70;16.00;;;;;;;-128.00;-1.00;-1.00;18510;292;7505798;-34
2023/04/11 01:39:42;;;;;;;37.70;18.90;;;;;;;-128.00;-1.00;-1.00;18910;292;7504641;-35
2023/04/11 01:42:08;;;;;;;49.40;19.50;;;;;;;-128.00;-1.00;-1.00;18915;292;7504695;-35
2023/04/11 01:44:35;;;;;;;35.90;18.20;;;;;;;-128.00;-1.00;-1.00;18901;293;7505207;-35
2023/04/11 01:47:01;;;;;;;37.30;18.10;;;;;;;-128.00;-1.00;-1.00;18499;292;7504438;-35
2023/04/11 01:49:26;;;;;;;33.90;18.70;;;;;;;-128.00;-1.00;-1.00;18523;293;7504681;-31
2023/04/11 01:51:53;;;;;;;30.50;16.20;;;;;;;-128.00;-1.00;-1.00;18505;292;7504667;-35
2023/04/11 01:54:19;;;;;;;36.60;18.80;;;;;;;-128.00;-1.00;-1.00;18495;292;7504503;-34
2023/04/11 01:56:44;;;;;;;46.30;19.80;;;;;;;-128.00;-1.00;-1.00;18517;292;7504934;-34
2023/04/11 01:59:10;;;;;;;39.20;18.90;;;;;;;-128.00;-1.00;-1.00;18917;292;7505148;-34
2023/04/11 02:01:36;;;;;;;33.20;17.10;;;;;;;-128.00;-1.00;-1.00;18895;293;7504301;-31
2023/04/11 02:04:02;;;;;;;31.90;18.20;;;;;;;-128.00;-1.00;-1.00;18907;293;7504779;-30
2023/04/11 02:06:30;;;;;;;34.40;17.60;;;;;;;-128.00;-1.00;-1.00;18920;293;7504602;-31
2023/04/11 02:08:56;;;;;;;32.20;17.60;;;;;;;-128.00;-1.00;-1.00;18529;292;7506494;-34
2023/04/11 02:11:22;;;;;;;28.70;16.30;;;;;;;-128.00;-1.00;-1.00;18880;294;7504116;-32
2023/04/11 02:13:48;;;;;;;36.60;17.70;;;;;;;-128.00;-1.00;-1.00;18910;293;7505236;-30
2023/04/11 02:16:16;;;;;;;30.30;15.70;;;;;;;-128.00;-1.00;-1.00;18918;292;7504953;-32
2023/04/11 02:18:43;;;;;;;38.00;17.70;;;;;;;-128.00;-1.00;-1.00;18493;294;7505049;-35
2023/04/11 02:21:08;;;;;;;26.00;16.40;;;;;;;-128.00;-1.00;-1.00;18511;292;7505337;-32
2023/04/11 02:23:34;;;;;;;25.50;13.20;;;;;;;-128.00;-1.00;-1.00;18447;345;7506023;-32
2023/04/11 02:26:00;;;;;;;30.50;16.70;;;;;;;-128.00;-1.00;-1.00;18938;293;7505583;-35
2023/04/11 02:28:26;;;;;;;35.50;16.80;;;;;;;-128.00;-1.00;-1.00;18514;292;7504063;-32
2023/04/11 02:30:52;;;;;;;46.50;19.70;;;;;;;-128.00;-1.00;-1.00;18508;292;7504502;-35
2023/04/11 02:33:18;;;;;;;30.30;17.40;;;;;;;-128.00;-1.00;-1.00;18505;292;7504348;-31
2023/04/11 02:35:45;;;;;;;28.50;16.30;;;;;;;-128.00;-1.00;-1.00;18529;292;7506048;-35
2023/04/11 02:38:10;;;;;;;37.70;19.40;;;;;;;-128.00;-1.00;-1.00;18510;293;7506074;-35
2023/04/11 02:40:36;;;;;;;37.50;20.20;;;;;;;-128.00;-1.00;-1.00;18913;292;7505080;-31
2023/04/11 02:43:03;;;;;;;40.50;19.40;;;;;;;-128.00;-1.00;-1.00;18911;292;7505287;-32
2023/04/11 02:45:29;;;;;;;32.40;16.60;;;;;;;-128.00;-1.00;-1.00;18902;294;7504870;-35
2023/04/11 02:47:57;;;;;;;27.90;14.80;;;;;;;-128.00;-1.00;-1.00;18482;292;7505736;-34
2023/04/11 02:50:25;;;;;;;28.20;15.80;;;;;;;-128.00;-1.00;-1.00;18506;292;7505717;-30
2023/04/11 02:52:52;;;;;;;28.30;16.00;;;;;;;-128.00;-1.00;-1.00;18494;292;7504356;-30
2023/04/11 02:55:18;;;;;;;29.00;14.60;;;;;;;-128.00;-1.00;-1.00;18503;292;7504741;-30
2023/04/11 02:57:43;;;;;;;30.30;16.70;;;;;;;-128.00;-1.00;-1.00;18512;292;7504835;-34
2023/04/11 03:00:10;;;;;;;29.90;16.30;;;;;;;-128.00;-1.00;-1.00;18524;292;7504611;-30
2023/04/11 03:02:35;;;;;;;27.60;15.90;;;;;;;-128.00;-1.00;-1.00;18502;292;7504521;-30
2023/04/11 03:05:02;;;;;;;26.60;16.30;;;;;;;-128.00;-1.00;-1.00;18491;286;7505753;-31
2023/04/11 03:07:31;;;;;;;29.00;15.60;;;;;;;-128.00;-1.00;-1.00;18488;296;7504894;-30
2023/04/11 03:09:58;;;;;;;25.20;15.80;;;;;;;-128.00;-1.00;-1.00;18501;293;7504636;-30
2023/04/11 03:12:23;;;;;;;42.70;18.40;;;;;;;-128.00;-1.00;-1.00;18525;293;7504792;-34
2023/04/11 03:14:49;;;;;;;46.40;18.80;;;;;;;-128.00;-1.00;-1.00;18910;293;7504919;-31
2023/04/11 03:17:16;;;;;;;33.30;17.80;;;;;;;-128.00;-1.00;-1.00;18882;294;7504711;-31
2023/04/11 03:19:42;;;;;;;45.50;19.00;;;;;;;-128.00;-1.00;-1.00;18876;305;7504375;-32
2023/04/11 03:22:10;;;;;;;37.80;19.80;;;;;;;-128.00;-1.00;-1.00;18935;293;7505128;-35
2023/04/11 03:24:38;;;;;;;40.40;17.00;;;;;;;-128.00;-1.00;-1.00;18525;296;7506057;-34
2023/04/11 03:27:04;;;;;;;36.50;18.10;;;;;;;-128.00;-1.00;-1.00;18510;285;7504418;-30
2023/04/11 03:29:31;;;;;;;42.60;17.30;;;;;;;-128.00;-1.00;-1.00;18540;293;7504714;-34
2023/04/11 03:31:57;;;;;;;37.90;19.60;;;;;;;-128.00;-1.00;-1.00;18515;293;7504568;-36
2023/04/11 03:34:24;;;;;;;37.20;17.70;;;;;;;-128.00;-1.00;-1.00;18526;293;7504566;-33
2023/04/11 03:36:50;;;;;;;26.00;16.30;;;;;;;-128.00;-1.00;-1.00;18495;293;7505988;-31
2023/04/11 03:39:18;;;;;;;38.40;20.10;;;;;;;-128.00;-1.00;-1.00;18522;293;7506305;-31
2023/04/11 03:41:43;;;;;;;45.50;18.30;;;;;;;-128.00;-1.00;-1.00;18537;293;7505069;-32
2023/04/11 03:44:09;;;;;;;31.60;18.90;;;;;;;-128.00;-1.00;-1.00;18481;345;7505751;-31
2023/04/11 03:46:35;;;;;;;38.20;18.20;;;;;;;-128.00;-1.00;-1.00;18512;294;7504983;-35
2023/04/11 03:49:01;;;;;;;44.60;21.80;;;;;;;-128.00;-1.00;-1.00;18914;293;7504772;-31
2023/04/11 03:51:27;;;;;;;35.90;18.20;;;;;;;-128.00;-1.00;-1.00;18920;293;7504428;-35
2023/04/11 03:53:53;;;;;;;47.50;20.20;;;;;;;-128.00;-1.00;-1.00;18526;292;7504648;-31
2023/04/11 03:56:19;;;;;;;53.70;21.40;;;;;;;-128.00;-1.00;-1.00;18510;293;7506147;-31
2023/04/11 03:58:45;;;;;;;35.60;19.20;;;;;;;-128.00;-1.00;-1.00;18520;289;7506376;-34
2023/04/11 04:01:11;;;;;;;39.50;18.60;;;;;;;-128.00;-1.00;-1.00;18500;293;7504352;-31
2023/04/11 04:03:37;;;;;;;49.20;20.40;;;;;;;-128.00;-1.00;-1.00;18925;300;7505210;-35
2023/04/11 04:06:03;;;;;;;28.40;16.50;;;;;;;-128.00;-1.00;-1.00;18510;293;7506531;-31
2023/04/11 04:08:29;;;;;;;55.10;24.60;;;;;;;-128.00;-1.00;-1.00;18515;293;7505785;-31
2023/04/11 04:10:55;;;;;;;55.60;26.00;;;;;;;-128.00;-1.00;-1.00;18905;293;7504863;-31
2023/04/11 04:13:21;;;;;;;53.10;27.90;;;;;;;-128.00;-1.00;-1.00;18905;293;7504432;-34
2023/04/11 04:15:50;;;;;;;53.00;28.10;;;;;;;-128.00;-1.00;-1.00;18506;293;7504463;-31
2023/04/11 04:18:16;;;;;;;59.50;28.10;;;;;;;-128.00;-1.00;-1.00;18517;293;7504755;-31
2023/04/11 04:20:41;;;;;;;74.10;34.50;;;;;;;-128.00;-1.00;-1.00;18497;293;7504853;-31
2023/04/11 04:23:07;;;;;;;57.90;26.70;;;;;;;-128.00;-1.00;-1.00;18489;293;7505145;-32
2023/04/11 04:25:33;;;;;;;64.10;28.40;;;;;;;-128.00;-1.00;-1.00;18904;292;7505031;-34
2023/04/11 04:28:00;;;;;;;59.20;25.00;;;;;;;-128.00;-1.00;-1.00;18473;294;7505380;-31
2023/04/11 04:30:27;;;;;;;60.50;23.90;;;;;;;-128.00;-1.00;-1.00;18520;292;7506060;-31
2023/04/11 04:32:57;;;;;;;55.30;27.60;;;;;;;-128.00;-1.00;-1.00;18545;292;7506840;-35
2023/04/11 05:14:26;;;;;;;84.90;33.30;;;;;;;-101.48;19.20;19821.99;19554;295;8045273;-30
2023/04/11 05:16:53;;;;;;;76.60;33.10;;;;;;;-128.00;-1.00;-1.00;18124;312;7506543;-30
2023/04/11 05:19:19;;;;;;;63.40;29.00;;;;;;;-128.00;-1.00;-1.00;18499;297;7504946;-30
2023/04/11 05:21:44;;;;;;;67.00;27.40;;;;;;;-128.00;-1.00;-1.00;18482;287;7505837;-34
2023/04/11 05:24:10;;;;;;;64.40;30.60;;;;;;;-128.00;-1.00;-1.00;18443;296;7506013;-31
2023/04/11 05:26:35;;;;;;;64.40;27.00;;;;;;;-128.00;-1.00;-1.00;18450;346;7504258;-31
2023/04/11 05:29:01;;;;;;;56.80;23.80;;;;;;;-128.00;-1.00;-1.00;18500;295;7506780;-31
2023/04/11 05:31:27;;;;;;;56.00;24.40;;;;;;;-128.00;-1.00;-1.00;18495;295;7504533;-35
2023/04/11 05:33:53;;;;;;;49.00;23.70;;;;;;;-128.00;-1.00;-1.00;18491;295;7505134;-32
2023/04/11 05:36:19;;;;;;;56.20;24.50;;;;;;;-128.00;-1.00;-1.00;18494;347;7504994;-32
2023/04/11 05:38:45;;;;;;;52.40;23.80;;;;;;;-128.00;-1.00;-1.00;18488;295;7504865;-32
2023/04/11 05:41:11;;;;;;;57.40;26.20;;;;;;;-128.00;-1.00;-1.00;18471;336;7505697;-31
2023/04/11 05:43:37;;;;;;;49.40;23.50;;;;;;;-128.00;-1.00;-1.00;18507;295;7506113;-32
2023/04/11 05:46:04;;;;;;;50.80;24.30;;;;;;;-128.00;-1.00;-1.00;18497;295;7505862;-35
2023/04/11 05:48:29;;;;;;;48.10;22.80;;;;;;;-128.00;-1.00;-1.00;18484;295;7504838;-36
2023/04/11 05:50:57;;;;;;;62.70;29.70;;;;;;;-128.00;-1.00;-1.00;18899;295;7504573;-35
2023/04/11 05:53:22;;;;;;;42.60;20.60;;;;;;;-128.00;-1.00;-1.00;18475;347;7506170;-32
2023/04/11 05:55:49;;;;;;;53.40;24.90;;;;;;;-128.00;-1.00;-1.00;18501;295;7504642;-31
2023/04/11 05:58:15;;;;;;;58.80;27.40;;;;;;;-128.00;-1.00;-1.00;18488;288;7505654;-31
2023/04/11 06:00:40;;;;;;;48.30;23.00;;;;;;;-128.00;-1.00;-1.00;18480;287;7505994;-35
2023/04/11 06:03:09;;;;;;;52.80;26.40;;;;;;;-128.00;-1.00;-1.00;18497;347;7504727;-32
2023/04/11 06:05:35;;;;;;;68.40;30.00;;;;;;;-128.00;-1.00;-1.00;18470;287;7504963;-31
2023/04/11 06:08:01;;;;;;;66.80;32.00;;;;;;;-128.00;-1.00;-1.00;18873;295;7504290;-35
2023/04/11 06:10:28;;;;;;;60.30;26.30;;;;;;;-128.00;-1.00;-1.00;18519;295;7506830;-30
2023/04/11 06:12:53;;;;;;;43.70;25.60;;;;;;;-128.00;-1.00;-1.00;18502;295;7504208;-32
2023/04/11 06:15:20;;;;;;;55.20;27.00;;;;;;;-128.00;-1.00;-1.00;18475;296;7504606;-35
2023/04/11 06:17:46;;;;;;;56.50;23.60;;;;;;;-128.00;-1.00;-1.00;18467;297;7504805;-35
2023/04/11 06:20:11;;;;;;;55.40;22.40;;;;;;;-128.00;-1.00;-1.00;18459;320;7506853;-31
2023/04/11 06:22:39;;;;;;;54.00;25.70;;;;;;;-128.00;-1.00;-1.00;18471;295;7504291;-35
2023/04/11 06:25:06;;;;;;;55.30;26.60;;;;;;;-128.00;-1.00;-1.00;18461;288;7504358;-31
2023/04/11 06:27:31;;;;;;;70.50;29.10;;;;;;;-128.00;-1.00;-1.00;18470;297;7504778;-33
2023/04/11 06:29:57;;;;;;;71.40;30.10;;;;;;;-128.00;-1.00;-1.00;18487;297;7505008;-36
2023/04/11 06:32:27;;;;;;;64.20;27.40;;;;;;;-128.00;-1.00;-1.00;18913;288;7504636;-32
2023/04/11 06:34:53;;;;;;;54.90;27.30;;;;;;;-128.00;-1.00;-1.00;18481;297;7505370;-31
2023/04/11 06:37:19;;;;;;;59.60;28.50;;;;;;;-128.00;-1.00;-1.00;18496;288;7506043;-35
2023/04/11 06:39:44;;;;;;;54.70;26.30;;;;;;;-128.00;-1.00;-1.00;18455;303;7504640;-35
2023/04/11 06:42:10;;;;;;;52.50;25.10;;;;;;;-128.00;-1.00;-1.00;18483;296;7504884;-32
2023/04/11 06:44:36;;;;;;;46.10;23.20;;;;;;;-128.00;-1.00;-1.00;18449;347;7505540;-35
2023/04/11 06:47:02;;;;;;;54.90;28.10;;;;;;;-128.00;-1.00;-1.00;18853;297;7504782;-31
2023/04/11 06:49:28;;;;;;;54.00;26.10;;;;;;;-128.00;-1.00;-1.00;18865;295;7505494;-30
2023/04/11 06:51:54;;;;;;;56.30;27.90;;;;;;;-128.00;-1.00;-1.00;18854;297;7505729;-34
2023/04/11 06:54:21;;;;;;;53.50;26.10;;;;;;;-128.00;-1.00;-1.00;18860;288;7504324;-32
2023/04/11 06:56:49;;;;;;;49.00;25.00;;;;;;;-128.00;-1.00;-1.00;18883;295;7504867;-34
2023/04/11 06:59:15;;;;;;;52.60;24.70;;;;;;;-128.00;-1.00;-1.00;18465;296;7504064;-35
2023/04/11 07:01:41;;;;;;;48.50;22.50;;;;;;;-128.00;-1.00;-1.00;18472;288;7504902;-34
2023/04/11 07:04:07;;;;;;;57.60;27.20;;;;;;;-128.00;-1.00;-1.00;18870;299;7505394;-30
2023/04/11 07:06:34;;;;;;;49.00;24.60;;;;;;;-128.00;-1.00;-1.00;18871;288;7505186;-34
2023/04/11 07:09:01;;;;;;;41.80;22.20;;;;;;;-128.00;-1.00;-1.00;18497;347;7505348;-34
2023/04/11 07:11:27;;;;;;;41.50;19.50;;;;;;;-128.00;-1.00;-1.00;18465;295;7505917;-35
2023/04/11 07:13:57;;;;;;;44.80;22.40;;;;;;;-128.00;-1.00;-1.00;18447;348;7504875;-31
2023/04/11 07:16:22;;;;;;;40.50;21.50;;;;;;;-128.00;-1.00;-1.00;18478;295;7506034;-34
2023/04/11 07:18:49;;;;;;;54.20;22.10;;;;;;;-128.00;-1.00;-1.00;18448;295;7506001;-30
2023/04/11 07:21:15;;;;;;;47.70;21.50;;;;;;;-128.00;-1.00;-1.00;18466;295;7504621;-30
2023/04/11 07:23:41;;;;;;;46.10;23.80;;;;;;;-128.00;-1.00;-1.00;18861;348;7504947;-34
2023/04/11 07:26:10;;;;;;;42.30;22.20;;;;;;;-128.00;-1.00;-1.00;18852;296;7505134;-31
2023/04/11 07:28:39;;;;;;;43.00;22.10;;;;;;;-128.00;-1.00;-1.00;18479;288;7504693;-34
2023/04/11 07:31:09;;;;;;;41.90;21.60;;;;;;;-128.00;-1.00;-1.00;18490;288;7504846;-30
2023/04/11 07:33:36;;;;;;;43.00;22.00;;;;;;;-128.00;-1.00;-1.00;18452;347;7506026;-31
2023/04/11 07:36:02;;;;;;;38.10;20.00;;;;;;;-128.00;-1.00;-1.00;18460;296;7506213;-30
2023/04/11 07:38:28;;;;;;;47.10;21.90;;;;;;;-128.00;-1.00;-1.00;18483;316;7504496;-35
2023/04/11 07:40:55;;;;;;;36.20;19.90;;;;;;;-128.00;-1.00;-1.00;18447;297;7504516;-35
2023/04/11 07:43:22;;;;;;;42.10;21.20;;;;;;;-128.00;-1.00;-1.00;18479;296;7504924;-35
2023/04/11 07:45:48;;;;;;;41.90;19.30;;;;;;;-128.00;-1.00;-1.00;18455;298;7504798;-34
2023/04/11 07:48:13;;;;;;;43.10;20.00;;;;;;;-128.00;-1.00;-1.00;18475;284;7504729;-34
2023/04/11 07:50:39;;;;;;;47.20;24.30;;;;;;;-128.00;-1.00;-1.00;18869;320;7504861;-31
2023/04/11 07:53:06;;;;;;;45.90;22.60;;;;;;;-128.00;-1.00;-1.00;18858;289;7504362;-31
2023/04/11 07:55:32;;;;;;;42.60;19.80;;;;;;;-128.00;-1.00;-1.00;18481;295;7504397;-34
2023/04/11 07:57:58;;;;;;;37.40;20.20;;;;;;;-128.00;-1.00;-1.00;18468;288;7506042;-34
2023/04/11 08:00:24;;;;;;;53.20;21.60;;;;;;;-128.00;-1.00;-1.00;18461;297;7505108;-31
2023/04/11 08:02:51;;;;;;;43.90;21.10;;;;;;;-128.00;-1.00;-1.00;18439;297;7505616;-35
2023/04/11 08:05:16;;;;;;;36.90;19.00;;;;;;;-128.00;-1.00;-1.00;18469;288;7504814;-31
2023/04/11 08:07:42;;;;;;;34.60;17.20;;;;;;;-128.00;-1.00;-1.00;18470;288;7505194;-31
2023/04/11 08:10:09;;;;;;;43.10;20.60;;;;;;;-128.00;-1.00;-1.00;18881;288;7504899;-31
2023/04/11 08:12:34;;;;;;;29.50;17.70;;;;;;;-128.00;-1.00;-1.00;18501;288;7505752;-35
2023/04/11 08:15:01;;;;;;;33.40;19.80;;;;;;;-128.00;-1.00;-1.00;18454;295;7506378;-32
2023/04/11 08:17:27;;;;;;;36.70;18.00;;;;;;;-128.00;-1.00;-1.00;18471;288;7505779;-31
2023/04/11 08:19:54;;;;;;;35.00;18.10;;;;;;;-128.00;-1.00;-1.00;18485;295;7506266;-31
2023/04/11 08:22:20;;;;;;;34.60;19.80;;;;;;;-128.00;-1.00;-1.00;18469;296;7505363;-35
2023/04/11 08:24:46;;;;;;;60.30;21.30;;;;;;;-128.00;-1.00;-1.00;18876;295;7504506;-36
2023/04/11 08:27:12;;;;;;;31.50;17.80;;;;;;;-128.00;-1.00;-1.00;18865;295;7504669;-31
2023/04/11 08:29:38;;;;;;;45.10;19.70;;;;;;;-128.00;-1.00;-1.00;18844;298;7504591;-34
2023/04/11 08:32:05;;;;;;;28.40;16.80;;;;;;;-128.00;-1.00;-1.00;18873;284;7505096;-34
2023/04/11 08:34:32;;;;;;;29.70;14.90;;;;;;;-128.00;-1.00;-1.00;18479;341;7504508;-34
2023/04/11 08:36:57;;;;;;;37.40;15.80;;;;;;;-128.00;-1.00;-1.00;18464;304;7504834;-35
2023/04/11 08:39:23;;;;;;;30.60;17.90;;;;;;;-128.00;-1.00;-1.00;18892;295;7504653;-34
2023/04/11 08:41:50;;;;;;;31.30;16.70;;;;;;;-128.00;-1.00;-1.00;18845;307;7504869;-34
2023/04/11 08:44:16;;;;;;;44.50;18.70;;;;;;;-128.00;-1.00;-1.00;18869;296;7508520;-30
2023/04/11 08:46:43;;;;;;;26.80;15.30;;;;;;;-128.00;-1.00;-1.00;18471;296;7504964;-31
2023/04/11 08:49:09;;;;;;;27.50;15.20;;;;;;;-128.00;-1.00;-1.00;18861;285;7505678;-31
2023/04/11 08:51:35;;;;;;;30.40;15.90;;;;;;;-128.00;-1.00;-1.00;18884;296;7504557;-31
2023/04/11 08:54:04;;;;;;;25.00;15.20;;;;;;;-128.00;-1.00;-1.00;18889;296;7504626;-31
2023/04/11 08:56:33;;;;;;;21.30;13.50;;;;;;;-128.00;-1.00;-1.00;18456;288;7504730;-34
2023/04/11 08:58:59;;;;;;;27.10;16.00;;;;;;;-128.00;-1.00;-1.00;18479;288;7505420;-31
2023/04/11 09:01:32;;;;;;;29.20;14.20;;;;;;;-128.00;-1.00;-1.00;18864;285;7504499;-33
2023/04/11 09:04:03;;;;;;;26.30;13.40;;;;;;;-128.00;-1.00;-1.00;18488;296;7504697;-30
2023/04/11 09:06:31;;;;;;;27.50;13.80;;;;;;;-128.00;-1.00;-1.00;18498;296;7504316;-35
2023/04/11 09:08:58;;;;;;;19.50;12.60;;;;;;;-128.00;-1.00;-1.00;18480;296;7504355;-34
2023/04/11 09:11:24;;;;;;;26.20;15.40;;;;;;;-128.00;-1.00;-1.00;18483;299;7504871;-32
2023/04/11 09:14:08;;;;;;;28.90;14.40;;;;;;;-128.00;-1.00;-1.00;18439;298;7504335;-31
2023/04/11 09:16:34;;;;;;;23.80;13.80;;;;;;;-128.00;-1.00;-1.00;18463;288;7505996;-32
2023/04/11 09:19:00;;;;;;;36.40;13.00;;;;;;;-128.00;-1.00;-1.00;18493;288;7506347;-31
2023/04/11 09:21:30;;;;;;;26.60;12.70;;;;;;;-128.00;-1.00;-1.00;18471;288;7505399;-31
2023/04/11 09:24:14;;;;;;;23.00;12.70;;;;;;;-128.00;-1.00;-1.00;18524;288;7504469;-34
2023/04/11 09:26:40;;;;;;;15.70;11.10;;;;;;;-128.00;-1.00;-1.00;18481;348;7505741;-34
2023/04/11 09:29:05;;;;;;;22.90;11.90;;;;;;;-128.00;-1.00;-1.00;18464;288;7505507;-31
2023/04/11 09:31:39;;;;;;;19.10;11.20;;;;;;;-128.00;-1.00;-1.00;18867;296;7505047;-31
2023/04/11 09:34:05;;;;;;;24.70;11.20;;;;;;;-128.00;-1.00;-1.00;18476;296;7505985;-31
2023/04/11 09:36:31;;;;;;;24.80;12.70;;;;;;;-128.00;-1.00;-1.00;18461;297;7506701;-31
2023/04/11 09:38:58;;;;;;;18.50;11.00;;;;;;;-128.00;-1.00;-1.00;18868;308;7505346;-34
2023/04/11 09:41:30;;;;;;;18.90;11.80;;;;;;;-128.00;-1.00;-1.00;18453;296;7507403;-31
2023/04/11 09:43:55;;;;;;;19.10;12.70;;;;;;;-128.00;-1.00;-1.00;18485;288;7504870;-31
2023/04/11 09:46:21;;;;;;;25.80;11.30;;;;;;;-128.00;-1.00;-1.00;18900;296;7504920;-31
2023/04/11 09:48:49;;;;;;;13.90;9.50;;;;;;;-128.00;-1.00;-1.00;18885;348;7505094;-32
2023/04/11 09:51:15;;;;;;;16.20;9.20;;;;;;;-128.00;-1.00;-1.00;18462;297;7504638;-30
2023/04/11 09:53:41;;;;;;;20.30;8.50;;;;;;;-128.00;-1.00;-1.00;18466;295;7504617;-34
2023/04/11 09:56:07;;;;;;;10.90;7.50;;;;;;;-128.00;-1.00;-1.00;18462;348;7505952;-31
2023/04/11 09:58:35;;;;;;;20.50;9.10;;;;;;;-128.00;-1.00;-1.00;18475;348;7506231;-34
2023/04/11 10:01:01;;;;;;;11.60;8.00;;;;;;;-128.00;-1.00;-1.00;18444;331;7506214;-30
2023/04/11 10:03:29;;;;;;;15.20;8.60;;;;;;;-128.00;-1.00;-1.00;18469;288;7504534;-33
2023/04/11 10:05:56;;;;;;;16.00;8.80;;;;;;;-128.00;-1.00;-1.00;18456;297;7504342;-34
2023/04/11 10:08:31;;;;;;;24.20;15.40;;;;;;;-128.00;-1.00;-1.00;18475;288;7506201;-33
2023/04/11 10:11:00;;;;;;;18.00;9.80;;;;;;;-128.00;-1.00;-1.00;18474;296;7505146;-33
2023/04/11 10:13:42;;;;;;;25.30;13.90;;;;;;;-128.00;-1.00;-1.00;18463;303;7506384;-33
2023/04/11 10:16:19;;;;;;;25.50;15.00;;;;;;;-128.00;-1.00;-1.00;18470;295;7505206;-33
2023/04/11 10:19:12;;;;;;;26.20;15.60;;;;;;;-128.00;-1.00;-1.00;18489;295;7506042;-37
2023/04/11 10:21:41;;;;;;;13.10;9.20;;;;;;;-128.00;-1.00;-1.00;18480;295;7504267;-34
2023/04/11 10:24:12;;;;;;;17.40;12.90;;;;;;;-128.00;-1.00;-1.00;18463;297;7506067;-34
2023/04/11 10:26:50;;;;;;;19.80;7.50;;;;;;;-128.00;-1.00;-1.00;18466;295;7504783;-31
2023/04/11 10:29:39;;;;;;;12.90;8.60;;;;;;;-128.00;-1.00;-1.00;18484;312;7506031;-35
2023/04/11 10:32:18;;;;;;;20.50;9.90;;;;;;;-128.00;-1.00;-1.00;18480;308;7504816;-37
2023/04/11 10:35:23;;;;;;;15.30;8.80;;;;;;;-128.00;-1.00;-1.00;18457;295;7504284;-32
2023/04/11 10:37:49;;;;;;;11.00;7.80;;;;;;;-128.00;-1.00;-1.00;18466;288;7504667;-32
2023/04/11 10:40:15;;;;;;;13.40;8.90;;;;;;;-128.00;-1.00;-1.00;18489;296;7505346;-32
2023/04/11 10:42:42;;;;;;;9.40;6.90;;;;;;;-128.00;-1.00;-1.00;18465;296;7504294;-36
2023/04/11 10:45:23;;;;;;;16.10;8.90;;;;;;;-128.00;-1.00;-1.00;18488;308;7505110;-33
2023/04/11 10:48:11;;;;;;;10.60;7.10;;;;;;;-128.00;-1.00;-1.00;18486;295;7504653;-32
2023/04/11 10:50:40;;;;;;;10.10;7.10;;;;;;;-128.00;-1.00;-1.00;18460;303;7505194;-32
2023/04/11 10:53:08;;;;;;;13.20;9.00;;;;;;;-128.00;-1.00;-1.00;18488;288;7506643;-36
2023/04/11 10:55:45;;;;;;;11.30;6.90;;;;;;;-128.00;-1.00;-1.00;18473;295;7504806;-35
2023/04/11 10:58:15;;;;;;;13.90;8.20;;;;;;;-128.00;-1.00;-1.00;18466;295;7504763;-36
2023/04/11 11:01:13;;;;;;;14.10;9.00;;;;;;;-128.00;-1.00;-1.00;18465;288;7504714;-32
2023/04/11 11:46:13;;;;;;;20.00;10.30;;;;;;;-99.33;10.73;19741.63;98258;295;1543453;-31
2023/04/11 11:48:41;;;;;;;14.90;9.70;;;;;;;-128.00;-1.00;-1.00;41999;347;7997225;-35
2023/04/11 11:51:08;;;;;;;12.50;7.70;;;;;;;-128.00;-1.00;-1.00;18865;288;7505168;-31
2023/04/11 11:53:34;;;;;;;13.00;8.60;;;;;;;-128.00;-1.00;-1.00;18889;294;7505409;-32
2023/04/11 11:56:11;;;;;;;14.60;8.80;;;;;;;-128.00;-1.00;-1.00;18895;294;7505277;-32
2023/04/11 11:58:43;;;;;;;12.80;8.60;;;;;;;-128.00;-1.00;-1.00;18463;295;7504611;-32
2023/04/11 12:01:11;;;;;;;16.00;8.00;;;;;;;-128.00;-1.00;-1.00;18498;307;7504915;-32
2023/04/11 12:03:37;;;;;;;14.10;8.20;;;;;;;-128.00;-1.00;-1.00;18460;347;7505031;-31
2023/04/11 12:06:03;;;;;;;15.40;8.70;;;;;;;-128.00;-1.00;-1.00;18854;294;7504817;-32
2023/04/11 12:08:32;;;;;;;16.50;9.10;;;;;;;-128.00;-1.00;-1.00;18855;319;7504278;-32
2023/04/11 12:10:57;;;;;;;16.00;8.60;;;;;;;-128.00;-1.00;-1.00;18477;315;7505767;-35
2023/04/11 12:13:25;;;;;;;11.00;8.10;;;;;;;-128.00;-1.00;-1.00;18884;294;7504972;-31
2023/04/11 12:15:55;;;;;;;14.40;9.90;;;;;;;-128.00;-1.00;-1.00;18473;347;7505242;-36
2023/04/11 12:18:22;;;;;;;19.10;9.40;;;;;;;-128.00;-1.00;-1.00;18471;294;7506168;-36
2023/04/11 12:20:48;;;;;;;8.60;7.30;;;;;;;-128.00;-1.00;-1.00;18469;294;7505840;-36
2023/04/11 12:23:14;;;;;;;14.00;7.70;;;;;;;-128.00;-1.00;-1.00;18487;294;7505651;-35
2023/04/11 12:25:40;;;;;;;10.40;6.10;;;;;;;-128.00;-1.00;-1.00;18481;347;7504811;-36
2023/04/11 12:28:07;;;;;;;13.70;7.60;;;;;;;-128.00;-1.00;-1.00;18500;294;7504479;-35
2023/04/11 12:30:32;;;;;;;12.00;6.60;;;;;;;-128.00;-1.00;-1.00;18478;299;7505307;-37
2023/04/11 12:32:58;;;;;;;21.00;7.60;;;;;;;-128.00;-1.00;-1.00;18456;295;7506066;-32
2023/04/11 12:35:24;;;;;;;12.60;7.80;;;;;;;-128.00;-1.00;-1.00;18477;294;7504533;-40
2023/04/11 12:37:50;;;;;;;19.50;10.40;;;;;;;-128.00;-1.00;-1.00;18501;295;7504317;-32
2023/04/11 12:40:16;;;;;;;22.00;9.80;;;;;;;-128.00;-1.00;-1.00;18470;294;7505268;-32
2023/04/11 12:42:45;;;;;;;15.50;8.50;;;;;;;-128.00;-1.00;-1.00;18490;294;7504740;-35